createdAt,value
2018-09-16T00:00:44.641Z,15.5
2018-09-16T00:01:34.986Z,15.5
2018-09-16T00:02:25.046Z,15.4
2018-09-16T00:03:15.122Z,15.4
2018-09-16T00:04:04.886Z,15.4
2018-09-16T00:04:54.973Z,15.4
2018-09-16T00:05:45.301Z,15.4
2018-09-16T00:06:35.108Z,15.4
2018-09-16T00:07:25.165Z,15.4
2018-09-16T00:08:15.503Z,15.4
2018-09-16T00:09:05.269Z,15.4
2018-09-16T00:09:55.617Z,15.4
2018-09-16T00:10:45.390Z,15.4
2018-09-16T00:11:35.187Z,15.4
2018-09-16T00:12:25.813Z,15.4
2018-09-16T00:13:15.580Z,15.4
2018-09-16T00:14:05.670Z,15.4
2018-09-16T00:14:55.995Z,15.4
2018-09-16T00:15:45.769Z,15.4
2018-09-16T00:16:35.840Z,15.4
2018-09-16T00:17:25.920Z,15.4
2018-09-16T00:18:16.228Z,15.4
2018-09-16T00:19:05.745Z,15.3
2018-09-16T00:19:56.654Z,15.3
2018-09-16T00:20:46.153Z,15.3
2018-09-16T00:21:36.238Z,15.3
2018-09-16T00:22:26.272Z,15.3
2018-09-16T00:23:16.167Z,15.3
2018-09-16T00:24:06.404Z,15.3
2018-09-16T00:24:56.753Z,15.3
2018-09-16T00:25:46.812Z,15.3
2018-09-16T00:26:36.896Z,15.3
2018-09-16T00:27:26.384Z,15.3
2018-09-16T00:28:17.049Z,15.3
2018-09-16T00:29:07.092Z,15.2
2018-09-16T00:29:57.140Z,15.2
2018-09-16T00:30:46.901Z,15.2
2018-09-16T00:31:36.976Z,15.2
2018-09-16T00:32:27.041Z,15.2
2018-09-16T00:33:17.116Z,15.1
2018-09-16T00:34:07.181Z,15.1
2018-09-16T00:34:57.534Z,15.1
2018-09-16T00:35:47.912Z,15.1
2018-09-16T00:36:37.911Z,15.1
2018-09-16T00:37:27.138Z,15.1
2018-09-16T00:56:07.408Z,15
2018-09-16T00:56:56.945Z,15
2018-09-16T00:57:46.719Z,15
2018-09-16T00:58:37.050Z,15
2018-09-16T00:59:27.402Z,15
2018-09-16T01:00:17.470Z,15
2018-09-16T01:01:07.239Z,14.9
2018-09-16T01:01:57.283Z,14.9
2018-09-16T01:02:47.647Z,14.9
2018-09-16T01:03:37.405Z,14.9
2018-09-16T01:04:27.532Z,14.9
2018-09-16T01:05:17.824Z,14.9
2018-09-16T01:06:07.950Z,14.9
2018-09-16T01:06:57.654Z,14.9
2018-09-16T01:07:48.028Z,14.9
2018-09-16T01:08:37.817Z,14.9
2018-09-16T01:09:27.854Z,14.9
2018-09-16T01:10:18.214Z,14.9
2018-09-16T01:11:07.979Z,14.9
2018-09-16T01:11:58.298Z,14.8
2018-09-16T01:12:48.183Z,14.9
2018-09-16T01:13:38.184Z,14.8
2018-09-16T01:14:28.512Z,14.8
2018-09-16T01:15:18.574Z,14.8
2018-09-16T01:16:08.367Z,14.8
2018-09-16T01:16:58.981Z,14.8
2018-09-16T01:17:48.536Z,14.8
2018-09-16T01:18:38.889Z,14.8
2018-09-16T01:19:28.899Z,14.8
2018-09-16T01:20:18.663Z,14.8
2018-09-16T01:21:09.038Z,14.8
2018-09-16T01:21:58.857Z,14.8
2018-09-16T01:22:48.874Z,14.8
2018-09-16T01:23:39.195Z,14.8
2018-09-16T01:24:29.276Z,14.8
2018-09-16T01:25:19.395Z,14.8
2018-09-16T01:26:09.646Z,14.8
2018-09-16T01:26:59.783Z,14.8
2018-09-16T01:27:49.541Z,14.8
2018-09-16T01:28:39.585Z,14.8
2018-09-16T01:29:29.658Z,14.8
2018-09-16T01:30:19.718Z,14.8
2018-09-16T01:31:09.503Z,14.8
2018-09-16T01:31:59.949Z,14.8
2018-09-16T01:32:49.913Z,14.8
2018-09-16T01:33:39.690Z,14.7
2018-09-16T01:34:29.810Z,14.7
2018-09-16T01:35:20.101Z,14.8
2018-09-16T01:36:10.152Z,14.7
2018-09-16T01:37:00.245Z,14.7
2018-09-16T01:37:50.270Z,14.7
2018-09-16T01:38:40.359Z,14.7
2018-09-16T01:39:30.128Z,14.7
2018-09-16T01:40:19.902Z,14.8
2018-09-16T01:41:10.532Z,14.7
2018-09-16T01:42:00.634Z,14.8
2018-09-16T01:42:50.681Z,14.8
2018-09-16T01:43:40.453Z,14.8
2018-09-16T01:44:30.792Z,14.8
2018-09-16T01:45:20.869Z,14.8
2018-09-16T01:46:10.627Z,14.8
2018-09-16T01:47:01.176Z,14.8
2018-09-16T01:47:51.039Z,14.8
2018-09-16T01:48:40.875Z,14.8
2018-09-16T01:49:30.892Z,14.8
2018-09-16T01:50:20.941Z,14.8
2018-09-16T01:51:11.283Z,14.8
2018-09-16T01:52:01.366Z,14.8
2018-09-16T01:52:51.431Z,14.8
2018-09-16T01:53:41.202Z,14.8
2018-09-16T01:54:31.549Z,14.8
2018-09-16T01:55:21.617Z,14.8
2018-09-16T01:56:11.391Z,14.8
2018-09-16T01:57:01.736Z,14.8
2018-09-16T01:57:51.514Z,14.7
2018-09-16T01:58:41.864Z,14.8
2018-09-16T01:59:31.936Z,14.7
2018-09-16T02:00:22.012Z,14.7
2018-09-16T02:01:11.783Z,14.7
2018-09-16T02:02:02.118Z,14.7
2018-09-16T02:02:52.236Z,14.7
2018-09-16T02:03:42.238Z,14.7
2018-09-16T02:04:32.320Z,14.7
2018-09-16T02:05:22.073Z,14.7
2018-09-16T02:06:12.143Z,14.7
2018-09-16T02:07:02.221Z,14.7
2018-09-16T02:07:52.320Z,14.7
2018-09-16T02:08:42.333Z,14.7
2018-09-16T02:09:32.128Z,14.7
2018-09-16T02:10:22.166Z,14.7
2018-09-16T02:11:12.820Z,14.7
2018-09-16T02:12:02.596Z,14.7
2018-09-16T02:12:52.929Z,14.8
2018-09-16T02:13:42.708Z,14.8
2018-09-16T02:14:32.508Z,14.8
2018-09-16T02:15:22.841Z,14.8
2018-09-16T02:16:13.195Z,14.8
2018-09-16T02:17:03.260Z,14.8
2018-09-16T02:17:52.815Z,14.8
2018-09-16T02:18:42.529Z,14.8
2018-09-16T02:19:33.445Z,14.8
2018-09-16T02:20:22.649Z,14.8
2018-09-16T02:21:13.575Z,14.8
2018-09-16T02:22:03.637Z,14.8
2018-09-16T02:22:53.740Z,14.8
2018-09-16T02:23:44.090Z,14.8
2018-09-16T02:24:33.824Z,14.8
2018-09-16T02:25:23.592Z,14.8
2018-09-16T02:26:13.932Z,14.8
2018-09-16T02:27:03.777Z,14.8
2018-09-16T02:27:53.839Z,14.7
2018-09-16T02:28:43.866Z,14.8
2018-09-16T02:29:33.923Z,14.8
2018-09-16T02:30:23.976Z,14.8
2018-09-16T02:31:14.329Z,14.8
2018-09-16T02:32:04.641Z,14.7
2018-09-16T02:32:53.879Z,14.8
2018-09-16T02:33:44.535Z,14.8
2018-09-16T02:34:34.590Z,14.8
2018-09-16T02:35:24.645Z,14.7
2018-09-16T02:36:14.442Z,14.7
2018-09-16T02:37:04.504Z,14.8
2018-09-16T02:37:54.886Z,14.8
2018-09-16T02:38:44.914Z,14.8
2018-09-16T02:39:34.919Z,14.8
2018-09-16T02:40:24.766Z,14.8
2018-09-16T02:41:14.524Z,14.8
2018-09-16T02:42:04.878Z,14.7
2018-09-16T02:42:55.183Z,14.7
2018-09-16T02:43:45.282Z,14.7
2018-09-16T02:44:35.059Z,14.7
2018-09-16T02:45:25.140Z,14.7
2018-09-16T02:46:15.199Z,14.7
2018-09-16T02:47:05.551Z,14.7
2018-09-16T02:47:54.741Z,14.7
2018-09-16T02:48:45.671Z,14.7
2018-09-16T02:49:35.723Z,14.7
2018-09-16T02:50:25.811Z,14.7
2018-09-16T02:51:15.563Z,14.7
2018-09-16T02:52:05.335Z,14.7
2018-09-16T02:52:55.989Z,14.7
2018-09-16T02:53:45.763Z,14.7
2018-09-16T02:54:36.117Z,14.7
2018-09-16T02:55:26.163Z,14.7
2018-09-16T02:56:15.950Z,14.7
2018-09-16T02:57:06.314Z,14.7
2018-09-16T02:57:56.027Z,14.7
2018-09-16T02:58:46.708Z,14.7
2018-09-16T02:59:36.178Z,14.7
2018-09-16T03:00:26.293Z,14.7
2018-09-16T03:01:16.624Z,14.7
2018-09-16T03:02:06.396Z,14.7
2018-09-16T03:02:57.074Z,14.7
2018-09-16T03:03:46.812Z,14.7
2018-09-16T03:04:36.871Z,14.7
2018-09-16T03:05:26.912Z,14.7
2018-09-16T03:06:17.014Z,14.7
2018-09-16T03:07:07.120Z,14.8
2018-09-16T03:07:56.835Z,14.7
2018-09-16T03:08:46.881Z,14.8
2018-09-16T03:09:36.950Z,14.7
2018-09-16T03:10:27.269Z,14.7
2018-09-16T03:11:17.364Z,14.8
2018-09-16T03:12:06.872Z,14.8
2018-09-16T03:12:57.464Z,14.7
2018-09-16T03:13:47.359Z,14.7
2018-09-16T03:14:37.959Z,14.7
2018-09-16T03:15:27.697Z,14.7
2018-09-16T03:16:17.182Z,14.7
2018-09-16T03:17:07.796Z,14.7
2018-09-16T03:17:57.022Z,14.7
2018-09-16T03:18:47.996Z,14.7
2018-09-16T03:19:37.671Z,14.7
2018-09-16T03:20:28.313Z,14.7
2018-09-16T03:21:18.136Z,14.7
2018-09-16T03:22:08.207Z,14.7
2018-09-16T03:22:58.049Z,14.7
2018-09-16T03:23:48.312Z,14.7
2018-09-16T03:24:38.369Z,14.7
2018-09-16T03:25:29.083Z,14.6
2018-09-16T03:26:18.249Z,14.6
2018-09-16T03:27:07.996Z,14.6
2018-09-16T03:27:58.621Z,14.6
2018-09-16T03:28:48.406Z,14.6
2018-09-16T03:29:38.471Z,14.6
2018-09-16T03:30:29.151Z,14.6
2018-09-16T03:31:18.336Z,14.6
2018-09-16T03:32:08.946Z,14.6
2018-09-16T03:32:59.005Z,14.6
2018-09-16T03:33:48.778Z,14.6
2018-09-16T03:34:39.139Z,14.6
2018-09-16T03:35:29.508Z,14.6
2018-09-16T03:36:18.695Z,14.6
2018-09-16T03:37:09.043Z,14.6
2018-09-16T03:37:59.378Z,14.6
2018-09-16T03:38:49.448Z,14.6
2018-09-16T03:39:39.529Z,14.6
2018-09-16T03:40:29.855Z,14.6
2018-09-16T03:41:19.873Z,14.6
2018-09-16T03:42:09.735Z,14.6
2018-09-16T03:42:59.497Z,14.6
2018-09-16T03:43:49.897Z,14.6
2018-09-16T03:44:39.909Z,14.6
2018-09-16T03:45:29.932Z,14.6
2018-09-16T03:46:20.059Z,14.6
2018-09-16T03:47:10.120Z,14.7
2018-09-16T03:48:00.147Z,14.7
2018-09-16T03:48:50.236Z,14.6
2018-09-16T03:49:40.269Z,14.6
2018-09-16T03:50:30.399Z,14.6
2018-09-16T03:51:20.408Z,14.7
2018-09-16T03:52:10.497Z,14.6
2018-09-16T03:53:00.535Z,14.6
2018-09-16T03:53:50.293Z,14.6
2018-09-16T03:54:40.680Z,14.6
2018-09-16T03:55:30.757Z,14.6
2018-09-16T03:56:20.803Z,14.6
2018-09-16T03:57:10.550Z,14.6
2018-09-16T03:58:00.629Z,14.6
2018-09-16T03:58:50.954Z,14.6
2018-09-16T03:59:40.451Z,14.6
2018-09-16T04:00:31.115Z,14.6
2018-09-16T04:01:21.173Z,14.6
2018-09-16T04:02:11.221Z,14.6
2018-09-16T04:03:01.310Z,14.6
2018-09-16T04:03:51.358Z,14.7
2018-09-16T04:04:41.424Z,14.7
2018-09-16T04:05:31.476Z,14.7
2018-09-16T04:06:21.244Z,14.7
2018-09-16T04:07:11.619Z,14.7
2018-09-16T04:08:01.669Z,14.7
2018-09-16T04:08:51.439Z,14.7
2018-09-16T04:09:41.826Z,14.8
2018-09-16T04:10:31.854Z,14.8
2018-09-16T04:11:21.924Z,14.8
2018-09-16T04:12:11.992Z,14.8
2018-09-16T04:13:02.047Z,14.8
2018-09-16T04:13:52.469Z,14.8
2018-09-16T04:14:42.186Z,14.8
2018-09-16T04:15:31.953Z,14.8
2018-09-16T04:16:22.016Z,14.8
2018-09-16T04:17:12.120Z,14.8
2018-09-16T04:18:02.423Z,14.8
2018-09-16T04:18:52.211Z,14.8
2018-09-16T04:19:42.272Z,14.8
2018-09-16T04:20:32.323Z,14.8
2018-09-16T04:21:22.453Z,14.8
2018-09-16T04:22:12.717Z,14.8
2018-09-16T04:23:02.805Z,14.8
2018-09-16T04:23:52.878Z,14.8
2018-09-16T04:24:42.930Z,14.8
2018-09-16T04:25:32.713Z,14.8
2018-09-16T04:26:23.571Z,14.8
2018-09-16T04:27:13.202Z,14.8
2018-09-16T04:28:03.232Z,14.8
2018-09-16T04:28:53.245Z,14.8
2018-09-16T04:29:43.367Z,14.8
2018-09-16T04:30:33.105Z,14.8
2018-09-16T04:31:23.493Z,14.8
2018-09-16T04:32:13.273Z,14.8
2018-09-16T04:33:03.568Z,14.8
2018-09-16T04:33:53.070Z,14.8
2018-09-16T04:34:43.717Z,14.8
2018-09-16T04:35:33.479Z,14.8
2018-09-16T04:36:23.914Z,14.8
2018-09-16T04:37:13.598Z,14.8
2018-09-16T04:38:03.936Z,14.8
2018-09-16T04:38:53.726Z,14.8
2018-09-16T04:39:44.071Z,14.8
2018-09-16T04:40:33.852Z,14.8
2018-09-16T04:41:24.207Z,14.8
2018-09-16T04:42:13.961Z,14.8
2018-09-16T04:43:04.004Z,14.8
2018-09-16T04:43:54.383Z,14.8
2018-09-16T04:44:44.229Z,14.8
2018-09-16T04:45:34.248Z,14.8
2018-09-16T04:46:23.994Z,14.8
2018-09-16T04:47:14.350Z,14.8
2018-09-16T04:48:04.696Z,14.8
2018-09-16T04:48:54.763Z,14.8
2018-09-16T04:49:44.665Z,14.8
2018-09-16T04:50:34.891Z,14.8
2018-09-16T04:51:24.660Z,14.9
2018-09-16T04:52:14.720Z,14.9
2018-09-16T04:53:04.838Z,14.9
2018-09-16T04:53:54.843Z,14.9
2018-09-16T04:54:45.451Z,15
2018-09-16T04:55:35.265Z,15.1
2018-09-16T04:56:25.055Z,15.1
2018-09-16T04:57:15.405Z,15.2
2018-09-16T04:58:05.163Z,15.3
2018-09-16T04:58:54.961Z,15.4
2018-09-16T04:59:45.356Z,15.4
2018-09-16T05:00:35.405Z,15.6
2018-09-16T05:01:25.795Z,15.7
2018-09-16T05:02:15.480Z,15.8
2018-09-16T05:03:05.586Z,15.9
2018-09-16T05:03:55.898Z,16
2018-09-16T05:04:45.953Z,16.1
2018-09-16T05:05:36.040Z,16.3
2018-09-16T05:06:25.789Z,16.4
2018-09-16T05:07:15.872Z,16.6
2018-09-16T05:25:49.678Z,21.4
2018-09-16T05:26:39.646Z,21.7
2018-09-16T05:27:29.672Z,22
2018-09-16T05:28:19.746Z,22.3
2018-09-16T05:29:09.535Z,22.5
2018-09-16T05:29:59.943Z,22.8
2018-09-16T05:30:49.668Z,23.1
2018-09-16T05:31:39.701Z,23.4
2018-09-16T05:32:30.051Z,23.8
2018-09-16T05:33:20.099Z,24
2018-09-16T05:34:10.188Z,24.3
2018-09-16T05:35:00.254Z,24.6
2018-09-16T05:35:50.584Z,24.9
2018-09-16T05:36:39.800Z,25.3
2018-09-16T05:37:29.851Z,25.5
2018-09-16T05:38:19.913Z,25.8
2018-09-16T05:39:10.552Z,26.1
2018-09-16T05:40:00.044Z,26.4
2018-09-16T05:40:50.393Z,26.8
2018-09-16T05:41:40.447Z,27.1
2018-09-16T05:42:30.818Z,27.4
2018-09-16T05:43:20.514Z,27.7
2018-09-16T05:44:10.376Z,28
2018-09-16T05:45:00.992Z,28.3
2018-09-16T05:45:50.780Z,28.6
2018-09-16T05:46:41.121Z,28.9
2018-09-16T05:47:30.612Z,29.2
2018-09-16T05:48:21.259Z,29.5
2018-09-16T05:49:11.310Z,29.8
2018-09-16T05:50:01.094Z,30.1
2018-09-16T05:50:51.454Z,30.4
2018-09-16T05:51:41.504Z,30.8
2018-09-16T05:52:31.582Z,31
2018-09-16T05:53:22.209Z,31.4
2018-09-16T05:54:11.688Z,31.7
2018-09-16T05:55:01.748Z,31.9
2018-09-16T05:55:51.814Z,32.3
2018-09-16T05:56:41.584Z,32.6
2018-09-16T05:57:31.677Z,32.9
2018-09-16T05:58:21.715Z,33.3
2018-09-16T05:59:11.789Z,33.6
2018-09-16T06:00:02.152Z,33.9
2018-09-16T06:00:52.199Z,34.3
2018-09-16T06:01:42.032Z,34.6
2018-09-16T06:02:32.315Z,34.8
2018-09-16T06:03:22.096Z,35.1
2018-09-16T06:04:12.453Z,35.5
2018-09-16T06:05:02.799Z,35.8
2018-09-16T06:05:52.604Z,36.1
2018-09-16T06:06:43.101Z,36.4
2018-09-16T06:07:32.472Z,36.6
2018-09-16T06:08:22.758Z,36.9
2018-09-16T06:09:12.890Z,37.3
2018-09-16T06:10:02.919Z,37.6
2018-09-16T06:10:53.402Z,38
2018-09-16T06:11:42.707Z,38.4
2018-09-16T06:12:32.794Z,38.7
2018-09-16T06:13:22.561Z,39
2018-09-16T06:14:13.006Z,39.3
2018-09-16T06:15:03.339Z,39.6
2018-09-16T06:15:53.343Z,39.9
2018-09-16T06:16:43.395Z,40.3
2018-09-16T06:17:33.448Z,40.6
2018-09-16T06:18:23.531Z,41
2018-09-16T06:19:13.598Z,41.4
2018-09-16T06:20:03.680Z,41.8
2018-09-16T06:20:53.415Z,42.1
2018-09-16T06:21:43.768Z,42.5
2018-09-16T06:22:34.005Z,42.9
2018-09-16T06:23:23.965Z,43.3
2018-09-16T06:24:13.967Z,43.6
2018-09-16T06:25:03.512Z,43.9
2018-09-16T06:25:54.078Z,44.3
2018-09-16T06:26:43.865Z,44.6
2018-09-16T06:27:33.652Z,44.9
2018-09-16T06:28:23.974Z,45.3
2018-09-16T06:29:14.348Z,45.7
2018-09-16T06:30:04.117Z,46.1
2018-09-16T06:30:54.463Z,46.4
2018-09-16T06:31:44.512Z,46.7
2018-09-16T06:32:34.585Z,47
2018-09-16T06:33:24.667Z,47.3
2018-09-16T06:34:14.710Z,47.6
2018-09-16T06:35:04.515Z,47.9
2018-09-16T06:35:54.852Z,48.3
2018-09-16T06:36:44.617Z,48.6
2018-09-16T06:37:34.965Z,48.9
2018-09-16T06:38:25.072Z,49.3
2018-09-16T06:39:15.109Z,49.6
2018-09-16T06:40:05.162Z,50.5
2018-09-16T06:40:55.235Z,51.2
2018-09-16T06:41:45.310Z,50.1
2018-09-16T06:42:35.342Z,48.4
2018-09-16T06:43:25.379Z,45.4
2018-09-16T06:44:15.474Z,42.8
2018-09-16T06:45:05.524Z,41.2
2018-09-16T06:45:55.319Z,40.2
2018-09-16T06:46:45.381Z,39.4
2018-09-16T06:47:35.431Z,38.9
2018-09-16T06:48:25.796Z,38.6
2018-09-16T06:49:15.861Z,38.4
2018-09-16T06:50:05.909Z,38.6
2018-09-16T06:50:56.427Z,38.8
2018-09-16T06:51:46.055Z,39.3
2018-09-16T06:52:35.815Z,39.8
2018-09-16T06:53:26.171Z,40.4
2018-09-16T06:54:16.478Z,41.1
2018-09-16T06:55:06.076Z,41.7
2018-09-16T06:55:56.083Z,42.4
2018-09-16T06:56:46.148Z,43.1
2018-09-16T06:57:36.808Z,43.8
2018-09-16T06:58:26.273Z,44.5
2018-09-16T06:59:16.613Z,45.2
2018-09-16T07:00:06.405Z,45.9
2018-09-16T07:00:57.393Z,46.6
2018-09-16T07:01:46.563Z,47.2
2018-09-16T07:02:36.648Z,47.8
2018-09-16T07:03:26.935Z,48.4
2018-09-16T07:04:16.956Z,49.3
2018-09-16T07:05:06.779Z,50.8
2018-09-16T07:05:56.838Z,50.1
2018-09-16T07:06:46.922Z,49
2018-09-16T07:07:37.318Z,47.6
2018-09-16T07:08:27.907Z,46.1
2018-09-16T07:09:17.343Z,44.9
2018-09-16T07:10:07.434Z,44.2
2018-09-16T07:10:57.509Z,43.9
2018-09-16T07:11:47.275Z,44
2018-09-16T07:12:37.632Z,44.3
2018-09-16T07:13:27.413Z,44.7
2018-09-16T07:14:18.109Z,45
2018-09-16T07:15:07.887Z,45.4
2018-09-16T07:15:57.886Z,45.8
2018-09-16T07:16:47.678Z,46.3
2018-09-16T07:17:38.009Z,46.9
2018-09-16T07:18:28.057Z,47.6
2018-09-16T07:19:18.373Z,48.3
2018-09-16T07:20:08.228Z,49.1
2018-09-16T07:20:57.958Z,50.6
2018-09-16T07:21:48.334Z,52.2
2018-09-16T07:22:38.109Z,52.2
2018-09-16T07:23:28.447Z,52.2
2018-09-16T07:24:18.217Z,51.6
2018-09-16T07:25:08.004Z,50.1
2018-09-16T07:25:58.352Z,48.4
2018-09-16T07:26:48.739Z,47.6
2018-09-16T07:27:38.766Z,47.8
2018-09-16T07:28:28.239Z,47.9
2018-09-16T07:29:18.884Z,47.9
2018-09-16T07:30:09.019Z,47.6
2018-09-16T07:30:58.997Z,47.2
2018-09-16T07:31:49.066Z,46.6
2018-09-16T07:32:38.864Z,45.7
2018-09-16T07:33:28.622Z,44.9
2018-09-16T07:34:18.972Z,44.4
2018-09-16T07:35:09.009Z,44.1
2018-09-16T07:35:59.114Z,44.1
2018-09-16T07:36:48.887Z,44.1
2018-09-16T07:37:39.224Z,44.3
2018-09-16T07:38:29.286Z,44.7
2018-09-16T07:39:19.602Z,45.3
2018-09-16T07:40:09.418Z,46.2
2018-09-16T07:40:59.751Z,47.1
2018-09-16T07:41:49.841Z,47.9
2018-09-16T07:42:39.598Z,48.9
2018-09-16T07:43:29.955Z,50.9
2018-09-16T07:45:10.084Z,51.6
2018-09-16T07:46:00.138Z,50.6
2018-09-16T07:46:49.924Z,48.9
2018-09-16T07:47:39.983Z,47.1
2018-09-16T07:48:30.328Z,45.7
2018-09-16T07:49:20.396Z,44.8
2018-09-16T07:50:10.183Z,44.2
2018-09-16T07:51:00.232Z,44
2018-09-16T07:51:50.570Z,44.1
2018-09-16T07:52:40.063Z,43.9
2018-09-16T07:53:30.465Z,43.6
2018-09-16T07:54:20.250Z,43.4
2018-09-16T07:55:10.565Z,43.2
2018-09-16T07:56:00.575Z,43.1
2018-09-16T07:56:50.665Z,43
2018-09-16T07:57:41.030Z,42.9
2018-09-16T07:58:30.810Z,42.9
2018-09-16T07:59:20.852Z,42.9
2018-09-16T08:00:11.197Z,42.8
2018-09-16T08:01:01.035Z,42.8
2018-09-16T08:01:51.035Z,42.8
2018-09-16T08:02:41.103Z,42.7
2018-09-16T08:03:31.462Z,42.7
2018-09-16T08:04:20.657Z,42.6
2018-09-16T08:05:11.582Z,42.6
2018-09-16T08:06:01.758Z,42.7
2018-09-16T08:06:51.697Z,42.8
2018-09-16T08:07:41.505Z,42.8
2018-09-16T08:08:31.859Z,42.8
2018-09-16T08:09:21.602Z,42.8
2018-09-16T08:10:11.669Z,42.8
2018-09-16T08:11:01.810Z,42.8
2018-09-16T08:11:52.101Z,42.7
2018-09-16T08:12:41.921Z,42.8
2018-09-16T08:13:32.042Z,42.8
2018-09-16T08:14:22.048Z,42.9
2018-09-16T08:15:12.092Z,42.9
2018-09-16T08:16:02.426Z,43
2018-09-16T08:16:52.467Z,43.1
2018-09-16T08:17:42.532Z,43.3
2018-09-16T08:18:32.372Z,43.4
2018-09-16T08:19:22.684Z,43.7
2018-09-16T08:20:12.701Z,44.1
2018-09-16T08:21:03.331Z,44.9
2018-09-16T08:21:52.541Z,45.9
2018-09-16T08:22:42.916Z,46.8
2018-09-16T08:23:33.346Z,47.7
2018-09-16T08:24:22.758Z,48.4
2018-09-16T08:25:12.816Z,49.4
2018-09-16T08:26:03.168Z,51.6
2018-09-16T08:26:53.102Z,52.9
2018-09-16T08:27:43.260Z,53.2
2018-09-16T08:28:34.103Z,52.7
2018-09-16T08:29:23.142Z,50.9
2018-09-16T08:30:13.543Z,48.9
2018-09-16T08:31:03.548Z,47.3
2018-09-16T08:31:53.295Z,47.4
2018-09-16T08:32:43.658Z,48.7
2018-09-16T08:33:33.728Z,50.3
2018-09-16T08:34:23.505Z,51.6
2018-09-16T08:35:13.838Z,52.2
2018-09-16T08:36:03.918Z,52.3
2018-09-16T08:36:54.224Z,52.1
2018-09-16T08:37:44.038Z,51.8
2018-09-16T08:38:33.812Z,51.8
2018-09-16T08:39:24.162Z,51.8
2018-09-16T08:40:14.232Z,52.1
2018-09-16T08:41:04.300Z,52.7
2018-09-16T08:41:54.603Z,53.1
2018-09-16T08:42:44.145Z,53.3
2018-09-16T08:43:34.470Z,53.3
2018-09-16T08:44:24.267Z,52.9
2018-09-16T08:45:14.603Z,52.2
2018-09-16T08:46:04.675Z,52.1
2018-09-16T08:47:44.528Z,53
2018-09-16T08:48:34.865Z,53.6
2018-09-16T08:49:24.629Z,54.2
2018-09-16T08:50:14.416Z,54.6
2018-09-16T08:51:04.757Z,54.7
2018-09-16T08:51:55.124Z,54.8
2018-09-16T08:52:44.597Z,54.8
2018-09-16T08:53:35.233Z,54.6
2018-09-16T08:54:25.021Z,54.4
2018-09-16T08:55:15.347Z,54.6
2018-09-16T08:56:05.429Z,54.4
2018-09-16T08:56:55.202Z,54.2
2018-09-16T08:57:45.008Z,54.2
2018-09-16T08:58:36.556Z,54.5
2018-09-16T08:59:25.697Z,54.9
2018-09-16T09:00:15.456Z,55.3
2018-09-16T09:01:06.071Z,55.8
2018-09-16T09:01:55.351Z,56.1
2018-09-16T09:02:45.934Z,56.3
2018-09-16T09:03:35.996Z,56.4
2018-09-16T09:04:26.288Z,56.7
2018-09-16T09:05:16.128Z,56.9
2018-09-16T09:06:05.907Z,57.3
2018-09-16T09:06:55.961Z,57.5
2018-09-16T09:08:36.115Z,57.9
2018-09-16T09:09:26.183Z,58.1
2018-09-16T09:10:16.498Z,58.1
2018-09-16T09:11:06.911Z,58.3
2018-09-16T09:11:56.928Z,58.4
2018-09-16T09:12:45.648Z,58.6
2018-09-16T09:13:36.752Z,58.9
2018-09-16T09:14:27.763Z,59.1
2018-09-16T09:15:16.113Z,59.4
2018-09-16T09:16:06.668Z,59.6
2018-09-16T09:16:56.995Z,59.8
2018-09-16T09:17:47.070Z,60.1
2018-09-16T09:18:36.886Z,60.3
2018-09-16T09:19:27.311Z,60.6
2018-09-16T09:20:17.313Z,60.8
2018-09-16T09:21:06.767Z,60.9
2018-09-16T09:21:57.626Z,61.1
2018-09-16T09:22:47.457Z,61.3
2018-09-16T09:39:28.342Z,63.1
2018-09-16T09:40:18.175Z,63.1
2018-09-16T09:41:08.260Z,63.1
2018-09-16T09:41:58.575Z,63.1
2018-09-16T09:42:48.590Z,63.1
2018-09-16T09:43:38.707Z,63.1
2018-09-16T09:44:28.804Z,63.2
2018-09-16T09:45:18.572Z,63.4
2018-09-16T09:46:08.613Z,63.5
2018-09-16T09:46:58.964Z,63.7
2018-09-16T09:47:48.750Z,63.8
2018-09-16T09:48:38.884Z,63.9
2018-09-16T09:49:29.139Z,63.4
2018-09-16T09:50:18.769Z,63.2
2018-09-16T09:51:09.323Z,63.3
2018-09-16T09:51:58.566Z,63.6
2018-09-16T09:52:49.399Z,63.8
2018-09-16T09:53:38.968Z,63.4
2018-09-16T09:54:29.254Z,62.6
2018-09-16T09:55:19.357Z,61.4
2018-09-16T09:56:09.667Z,60.5
2018-09-16T09:56:59.285Z,60.3
2018-09-16T09:57:49.876Z,60.9
2018-09-16T09:58:39.896Z,61.6
2018-09-16T09:59:30.868Z,62.3
2018-09-16T10:00:20.483Z,62.6
2018-09-16T10:01:10.039Z,62.6
2018-09-16T10:01:59.821Z,62.6
2018-09-16T10:02:49.876Z,62.5
2018-09-16T10:03:39.940Z,62.6
2018-09-16T10:04:29.526Z,62.8
2018-09-16T10:05:20.306Z,63.1
2018-09-16T10:06:10.827Z,63.4
2018-09-16T10:07:00.186Z,63.7
2018-09-16T10:07:50.536Z,63.8
2018-09-16T10:08:40.316Z,63.9
2018-09-16T10:09:30.663Z,63.9
2018-09-16T10:10:20.448Z,64
2018-09-16T10:11:10.791Z,64.2
2018-09-16T10:12:00.880Z,64.4
2018-09-16T10:12:50.355Z,64.6
2018-09-16T10:13:41.033Z,64.6
2018-09-16T10:14:31.745Z,64.8
2018-09-16T10:15:21.161Z,64.8
2018-09-16T10:16:10.880Z,64.9
2018-09-16T10:17:01.248Z,64.9
2018-09-16T10:17:50.987Z,65
2018-09-16T10:18:41.090Z,65.1
2018-09-16T10:19:31.437Z,65.1
2018-09-16T10:20:21.487Z,65.1
2018-09-16T10:21:11.555Z,65.1
2018-09-16T10:22:01.612Z,65.1
2018-09-16T10:22:51.407Z,65.2
2018-09-16T10:23:41.804Z,65.3
2018-09-16T10:24:31.727Z,65.4
2018-09-16T10:25:21.888Z,65.5
2018-09-16T10:26:11.954Z,65.6
2018-09-16T10:27:01.731Z,65.7
2018-09-16T10:27:51.779Z,65.8
2018-09-16T10:28:41.559Z,65.8
2018-09-16T10:29:32.197Z,65.8
2018-09-16T10:30:22.254Z,65.8
2018-09-16T10:31:12.326Z,65.9
2018-09-16T10:32:02.392Z,66
2018-09-16T10:32:52.441Z,66.1
2018-09-16T10:33:42.208Z,66.2
2018-09-16T10:34:32.286Z,66.3
2018-09-16T10:35:22.636Z,66.4
2018-09-16T10:36:12.378Z,66.6
2018-09-16T10:37:02.840Z,66.8
2018-09-16T10:37:52.548Z,66.9
2018-09-16T10:38:42.689Z,67.1
2018-09-16T10:39:32.668Z,67.4
2018-09-16T10:40:23.086Z,67.8
2018-09-16T10:41:13.479Z,68.1
2018-09-16T10:42:03.381Z,68.4
2018-09-16T10:42:53.302Z,68.4
2018-09-16T10:43:43.362Z,68.3
2018-09-16T10:44:33.117Z,67.6
2018-09-16T10:45:23.103Z,66.7
2018-09-16T10:46:13.422Z,65.8
2018-09-16T10:47:03.525Z,65
2018-09-16T10:47:53.592Z,64.3
2018-09-16T10:48:43.125Z,63.8
2018-09-16T10:49:33.740Z,63.2
2018-09-16T10:50:23.783Z,62.6
2018-09-16T10:51:13.935Z,61.9
2018-09-16T10:52:04.167Z,61.3
2018-09-16T10:52:54.015Z,60.8
2018-09-16T10:53:44.023Z,60.4
2018-09-16T10:54:34.105Z,60.3
2018-09-16T10:55:24.137Z,60.1
2018-09-16T10:56:14.522Z,59.6
2018-09-16T10:57:04.340Z,58.9
2018-09-16T10:57:54.349Z,58.3
2018-09-16T10:59:34.485Z,57.3
2018-09-16T11:00:24.274Z,57.1
2018-09-16T11:01:14.562Z,56.9
2018-09-16T11:02:04.402Z,56.8
2018-09-16T11:02:54.417Z,56.5
2018-09-16T11:03:44.794Z,56.2
2018-09-16T11:04:34.601Z,55.9
2018-09-16T11:05:24.953Z,55.6
2018-09-16T11:06:14.759Z,55.4
2018-09-16T11:07:04.822Z,55.1
2018-09-16T11:07:55.440Z,54.8
2018-09-16T11:08:45.192Z,54
2018-09-16T11:09:35.246Z,53.4
2018-09-16T11:10:25.301Z,52.9
2018-09-16T11:11:15.374Z,52.7
2018-09-16T11:12:05.741Z,52.7
2018-09-16T11:12:55.483Z,53.1
2018-09-16T11:13:45.297Z,53.8
2018-09-16T11:14:35.616Z,54.8
2018-09-16T11:15:25.690Z,55.6
2018-09-16T11:16:15.456Z,56.1
2018-09-16T11:17:05.526Z,56.4
2018-09-16T11:17:55.867Z,56.6
2018-09-16T11:18:46.178Z,56.5
2018-09-16T11:19:35.997Z,56.7
2018-09-16T11:20:25.779Z,57.3
2018-09-16T11:21:15.854Z,56.9
2018-09-16T11:22:06.520Z,56.2
2018-09-16T11:22:56.492Z,55
2018-09-16T11:23:46.933Z,53.9
2018-09-16T11:24:36.110Z,53
2018-09-16T11:27:06.690Z,51.6
2018-09-16T11:27:56.365Z,51.4
2018-09-16T11:28:46.380Z,51.1
2018-09-16T11:29:36.529Z,50.8
2018-09-16T11:30:26.832Z,50.5
2018-09-16T11:31:16.905Z,50.4
2018-09-16T11:32:06.674Z,50.4
2018-09-16T11:32:57.007Z,50.4
2018-09-16T11:33:47.167Z,50.6
2018-09-16T11:34:37.129Z,50.6
2018-09-16T11:35:27.377Z,50.8
2018-09-16T11:36:17.275Z,50.9
2018-09-16T11:37:07.328Z,50.9
2018-09-16T11:37:57.122Z,51.1
2018-09-16T11:38:47.709Z,51.5
2018-09-16T11:41:17.659Z,53
2018-09-16T11:42:07.727Z,53.8
2018-09-16T11:42:57.484Z,54.4
2018-09-16T11:43:47.857Z,54.8
2018-09-16T11:44:38.144Z,54.8
2018-09-16T11:45:27.970Z,54.7
2018-09-16T11:46:18.064Z,54.4
2018-09-16T11:47:07.847Z,54.1
2018-09-16T11:47:57.588Z,53.6
2018-09-16T11:48:48.475Z,53.2
2018-09-16T11:49:38.358Z,52.8
2018-09-16T11:50:27.795Z,52.3
2018-09-16T11:51:18.140Z,51.8
2018-09-16T11:52:07.987Z,51.3
2018-09-16T11:52:58.537Z,50.9
2018-09-16T11:53:49.150Z,50.4
2018-09-16T11:54:38.722Z,50
2018-09-16T11:55:28.457Z,49.6
2018-09-16T11:56:18.517Z,49.2
2018-09-16T11:57:08.585Z,48.8
2018-09-16T11:57:58.642Z,48.4
2018-09-16T11:58:48.746Z,48.2
2018-09-16T11:59:39.067Z,48.1
2018-09-16T12:00:29.125Z,48.1
2018-09-16T12:01:19.175Z,48.1
2018-09-16T12:02:09.573Z,48.1
2018-09-16T12:02:59.034Z,48.2
2018-09-16T12:03:49.079Z,48.6
2018-09-16T12:04:39.435Z,49.4
2018-09-16T12:05:29.515Z,50.2
2018-09-16T12:06:19.596Z,50.8